• Join FlightAware (Why Join?)
  • Login
  • US Flag 
01:13AM EDT


 

Airport Tracker/Info


-or-


 

Live Flight TrackerFlight Track Log ✈ BSK1106 ✈ 28-Mar-2014 ✈ KPIE - KSGF

Flight Track Log - Related Links

Times and Time Zones

All times are in EDT time to prevent confusion due to time zone crossing. See the BSK1106 flight status page for this flight to view local times or setup timezone preferences in your user account.

Time Position Orientation Groundspeed Altitude Reporting Facility
EDT Latitude Longitude Course Direction KTS MPH feet Rate Location/Type
05:24PM 27.9000 -82.6833 180° South 180 207 600  Level Tampa TRACON
05:24PM 27.8833 -82.6833 180° South 164 189 1,600 1,860 Climbing Tampa TRACON
05:25PM 27.8167 -82.6833 180° South 227 261 3,400 2,160 Climbing Tampa TRACON
05:27PM 27.8869 -82.7494 320° Northwest 246 283 8,400 2,340 Climbing Jacksonville Center
05:28PM 27.9703 -82.7281 13° North 263 303 10,500 1,980 Climbing Jacksonville Center
05:34PM 28.6620 -82.6744 North 454 522 22,400 1,800 Climbing FlightAware ADS-B (KMCO)
05:38PM 29.2339 -82.6373 North 469 540 29,000 1,560 Climbing FlightAware ADS-B (KMCO)
05:39PM 29.3457 -82.6296 North 469 540 30,800 1,440 Climbing FlightAware ADS-B (KMCO)
05:40PM 29.4919 -82.6206 North 458 527 32,000 1,080 Climbing FlightAware ADS-B (KMCO)
05:41PM 29.5896 -82.6143 North 460 529 32,900 1,140 Climbing FlightAware ADS-B (KMCO)
05:42PM 29.6813 -82.6158 356° North 450 518 33,700 1,020 Climbing FlightAware ADS-B (KMCO)
05:42PM 29.7465 -82.6208 356° North 451 519 34,200 960 Climbing FlightAware ADS-B (KMCO)
05:43PM 29.8272 -82.6258 357° North 454 522 34,900 960 Climbing FlightAware ADS-B (KMCO)
05:44PM 29.8948 -82.6296 357° North 454 522 35,400 1,020 Climbing FlightAware ADS-B (KMCO)
05:44PM 29.9748 -82.6342 358° North 449 517 36,100 960 Climbing FlightAware ADS-B (KMCO)
05:45PM 30.0363 -82.6375 357° North 450 518 36,500 660 Climbing FlightAware ADS-B (KMCO)
05:45PM 30.1013 -82.6413 357° North 450 518 36,800 600 Climbing FlightAware ADS-B (KMCO)
05:46PM 30.1422 -82.6423 North 460 529 37,000 240 Climbing FlightAware ADS-B (KMCO)
05:46PM 30.2019 -82.6370 North 464 534 37,000  Level FlightAware ADS-B (KMCO)
05:47PM 30.2733 -82.6299 North 465 535 37,000  Level FlightAware ADS-B (KMCO)
05:47PM 30.3310 -82.6243 North 466 536 37,000  Level FlightAware ADS-B (KMCO)
05:48PM 30.4409 -82.6138 North 466 536 37,000  Level FlightAware ADS-B (KMCO)
05:49PM 30.5997 -82.5988 North 472 543 37,000  Level FlightAware ADS-B (KMCO)
05:51PM 30.8843 -82.5762 358° North 478 550 37,000  Level FlightAware ADS-B (KMCO)
05:52PM 30.9572 -82.6139 358° North 448 516 37,000  Level Jacksonville Center
05:53PM 31.0661 -82.6839 331° Northwest 436 502 37,000  Level Jacksonville Center
05:54PM 31.1831 -82.7589 331° Northwest 430 495 37,000  Level Jacksonville Center
05:55PM 31.2917 -82.8317 330° Northwest 436 502 37,000  Level Jacksonville Center
05:57PM 31.4494 -82.9386 330° Northwest 465 535 37,000  Level Atlanta Center
05:58PM 31.5544 -83.0081 331° Northwest 457 526 37,000  Level Atlanta Center
05:59PM 31.6636 -83.0847 329° Northwest 452 520 37,000  Level Atlanta Center
06:00PM 31.7706 -83.1544 331° Northwest 446 513 37,000  Level Atlanta Center
06:01PM 31.8775 -83.2269 330° Northwest 446 513 37,000  Level Atlanta Center
06:02PM 31.9492 -83.3364 308° West 423 487 37,000  Level Atlanta Center
06:03PM 32.0061 -83.4511 300° West 417 480 37,000 360 Level Atlanta Center
06:04PM 32.0692 -83.5756 301° West 412 474 37,800 480 Climbing Atlanta Center
06:05PM 32.1261 -83.6881 301° West 407 468 38,000 60 Climbing Atlanta Center
06:06PM 32.1806 -83.8008 300° West 402 463 38,000  Level Atlanta Center
06:07PM 32.2369 -83.9136 301° West 402 463 38,000  Level Atlanta Center
06:08PM 32.2914 -84.0267 300° West 402 463 38,000  Level Atlanta Center
06:09PM 32.3478 -84.1422 300° West 402 463 38,000  Level Atlanta Center
06:10PM 32.4061 -84.2578 301° West 402 463 38,000  Level Atlanta Center
06:11PM 32.4642 -84.3736 301° West 402 463 38,000  Level Atlanta Center
06:12PM 32.5222 -84.4922 300° West 407 468 38,000  Level Atlanta Center
06:13PM 32.5803 -84.6133 300° West 412 474 38,000  Level Atlanta Center
06:14PM 32.6400 -84.7319 301° West 417 480 38,000  Level Atlanta Center
06:15PM 32.6894 -84.8361 299° West 408 470 38,000  Level Atlanta Center
06:16PM 32.7556 -84.9600 302° West 414 476 38,000  Level Atlanta Center
06:17PM 32.8169 -85.1042 297° West 441 507 38,000  Level Atlanta Center
06:18PM 32.8725 -85.2061 303° West 435 501 38,000  Level Atlanta Center
06:19PM 32.9275 -85.3233 299° West 419 482 38,000  Level Atlanta Center
06:20PM 32.9889 -85.4481 300° West 419 482 38,000  Level Atlanta Center
06:21PM 33.0458 -85.5653 300° West 424 488 38,000  Level Atlanta Center
06:22PM 33.1028 -85.6853 300° West 424 488 38,000  Level Atlanta Center
06:23PM 33.1597 -85.8056 300° West 424 488 38,000  Level Atlanta Center
06:24PM 33.2289 -85.9186 306° West 424 488 38,000  Level Atlanta Center
06:25PM 33.2961 -86.0319 305° West 430 495 38,000  Level Atlanta Center
06:26PM 33.3650 -86.1481 305° West 430 495 38,000  Level Atlanta Center
06:27PM 33.4319 -86.2592 306° West 419 482 38,000  Level Atlanta Center
06:33PM 32.8476 -85.1581 304° West 431 496 38,000  Level FlightAware ADS-B (KMDQ)
06:33PM 34.0036 -86.9481 304° West 432 497 38,000  Level Memphis Center
06:39PM 34.3742 -87.6326 303° West 436 502 38,000  Level FlightAware ADS-B (KMDQ)
06:39PM 34.4092 -87.6972 303° West 436 502 38,000  Level FlightAware ADS-B (KMDQ)
06:40PM 34.4836 -87.8269 303° West 436 502 38,000  Level Memphis Center
06:42PM 34.5556 -87.9619 303° West 435 501 38,000  Level Memphis Center
06:43PM 34.6206 -88.0839 303° West 434 499 38,000  Level Memphis Center
06:44PM 34.6844 -88.2039 303° West 430 495 38,000  Level Memphis Center
06:45PM 34.7486 -88.3219 304° West 424 488 38,000  Level Memphis Center
06:46PM 34.8233 -88.4642 303° West 421 484 38,000  Level Memphis Center
06:47PM 34.8775 -88.5661 303° West 412 474 38,000  Level Memphis Center
06:48PM 34.9497 -88.7061 302° West 411 473 38,000  Level Memphis Center
06:49PM 35.0100 -88.8206 303° West 407 468 38,000  Level Memphis Center
06:50PM 35.0692 -88.9358 302° West 406 467 38,000  Level Memphis Center
06:51PM 35.1306 -89.0506 303° West 406 467 38,000  Level Memphis Center
06:52PM 35.1894 -89.1656 302° West 406 467 38,000  Level Memphis Center
06:53PM 35.2614 -89.3042 302° West 406 467 38,000  Level Memphis Center
06:54PM 35.3214 -89.4217 302° West 406 467 38,000  Level Memphis Center
06:55PM 35.3825 -89.5389 303° West 407 468 38,000  Level Memphis Center
06:56PM 35.4431 -89.6583 302° West 410 472 38,000  Level Memphis Center
06:57PM 35.5036 -89.7783 302° West 413 475 38,000  Level Memphis Center
06:58PM 35.5764 -89.9222 302° West 413 475 38,000  Level Memphis Center
06:59PM 35.6344 -90.0350 302° West 403 464 38,000  Level Memphis Center
07:00PM 35.6942 -90.1572 301° West 399 459 38,000  Level Memphis Center
07:01PM 35.7528 -90.2733 302° West 398 458 38,000  Level Memphis Center
07:02PM 35.8119 -90.3897 302° West 398 458 38,000  Level Memphis Center
07:03PM 35.8700 -90.5058 302° West 398 458 38,000  Level Memphis Center
07:04PM 35.9283 -90.6247 301° West 398 458 38,000  Level Memphis Center
07:05PM 35.9869 -90.7436 301° West 401 461 38,000  Level Memphis Center
07:06PM 36.0469 -90.8642 302° West 406 467 38,000  Level Memphis Center
07:07PM 36.1186 -91.0108 301° West 411 473 38,000  Level Memphis Center
07:08PM 36.1786 -91.1325 301° West 411 473 38,000 -840 Level Memphis Center
07:09PM 36.2378 -91.2561 301° West 412 474 36,300 -1,920 Descending Memphis Center
07:10PM 36.2994 -91.3831 301° West 422 486 34,100 -1,500 Descending Memphis Center
07:12PM 36.3603 -91.5067 301° West 424 488 33,200 -900 Descending Memphis Center
07:13PM 36.4200 -91.6328 301° West 423 487 32,300 -2,040 Descending Memphis Center
07:14PM 36.4928 -91.7817 301° West 424 488 29,100 -2,820 Descending Memphis Center
07:15PM 36.5528 -91.9067 301° West 426 490 26,500 -2,460 Descending Memphis Center
07:16PM 36.6094 -92.0283 300° West 412 474 24,100 -2,520 Descending Memphis Center
07:17PM 36.6675 -92.1469 301° West 406 467 21,400 -2,340 Descending Memphis Center
07:18PM 36.7231 -92.2647 301° West 396 456 19,300 -1,920 Descending Memphis Center
07:19PM 36.7733 -92.3769 299° West 378 435 17,400 -1,620 Descending Kansas City Center
07:20PM 36.8256 -92.4844 301° West 368 423 16,000 -720 Descending Kansas City Center
07:21PM 36.8633 -92.5858 295° West 336 387 16,000 -840 Level Kansas City Center
07:22PM 36.8944 -92.7125 287° West 317 365 14,400 -1,740 Descending Kansas City Center
07:27PM 37.0526 -93.2085 311° West 247 284 5,000 -1,740 Descending FlightAware ADS-B (KMKE)
07:28PM 37.0778 -93.2460 309° West 236 272 4,400 -1,080 Descending FlightAware ADS-B (KMKE)
07:28PM 37.0881 -93.2616 310° West 229 264 4,200 -720 Descending FlightAware ADS-B (KMKE)
07:28PM 37.1024 -93.2831 310° West 211 243 3,900 -720 Descending FlightAware ADS-B (KMKE)
07:29PM 37.1163 -93.3038 310° West 204 235 3,700 -420 Descending FlightAware ADS-B (KMKE)
07:30PM 37.1486 -93.3750 310° West 232 267 3,200 -540 Descending Kansas City Center
07:31PM 37.1747 -93.4097 313° West 178 205 2,600 -780 Descending Kansas City Center
07:33PM 37.2333 -93.3833 324° Northwest  Level FlightAware Approximate
07:40PM 37.2457 -93.3886 341° North  Level Estimated
07:41PM 37.2457 -93.3886 North  Level Estimated